Time;durP1;ratioP1;P1;durP2;ratioP2;P2;SDS_P1;SDS_P2;PMS_P1;PMS_P2;Temp;Humidity;BMP_temperature;BMP_pressure;BME280_temperature;BME280_humidity;BME280_pressure;Samples;Min_cycle;Max_cycle;Signal;HPM_P1;HPM_P2
2022/06/24 00:01:56;;;;;;;9.88;6.25;;;;;;;22.67;100.00;100834.00;5137800;27;20075;-72
2022/06/24 00:04:50;;;;;;;8.70;6.10;;;;;;;22.91;100.00;100828.88;5137885;27;20114;-71
2022/06/24 00:07:51;;;;;;;6.43;5.70;;;;;;;22.79;100.00;100837.69;5138415;27;20019;-71
2022/06/24 00:10:37;;;;;;;8.38;6.25;;;;;;;23.13;100.00;100835.34;5137822;27;20118;-71
2022/06/24 00:13:23;;;;;;;7.13;5.50;;;;;;;23.17;100.00;100842.22;5138442;27;20500;-71
2022/06/24 00:16:09;;;;;;;9.95;6.03;;;;;;;22.96;100.00;100835.63;5138685;27;20038;-73
2022/06/24 00:19:08;;;;;;;11.73;5.78;;;;;;;22.96;100.00;100835.63;5123654;27;20019;-71
2022/06/24 00:22:12;;;;;;;9.45;5.95;;;;;;;22.96;100.00;100834.75;5123433;27;20114;-72
2022/06/24 00:25:31;;;;;;;6.72;5.82;;;;;;;23.07;100.00;100845.59;5137881;27;20023;-72
2022/06/24 00:28:24;;;;;;;8.32;5.68;;;;;;;22.80;100.00;100840.28;5137588;27;20471;-72
2022/06/24 00:31:10;;;;;;;8.50;5.85;;;;;;;22.72;100.00;100850.59;5137692;27;20075;-71
2022/06/24 00:33:56;;;;;;;8.40;6.28;;;;;;;22.80;100.00;100847.41;5137442;27;20027;-72
2022/06/24 00:36:41;;;;;;;11.32;6.00;;;;;;;22.87;100.00;100846.06;5137595;27;20447;-72
2022/06/24 00:39:33;;;;;;;8.65;6.00;;;;;;;22.49;100.00;100837.88;5137776;27;20099;-71
2022/06/24 00:42:19;;;;;;;9.10;6.07;;;;;;;22.54;100.00;100830.41;5122331;27;20037;-73
2022/06/24 00:45:24;;;;;;;9.60;6.53;;;;;;;22.72;100.00;100841.72;5137860;27;20119;-73
2022/06/24 00:48:15;;;;;;;9.70;6.25;;;;;;;22.61;100.00;100838.88;5136016;27;20424;-72
2022/06/24 00:51:01;;;;;;;7.88;6.28;;;;;;;22.80;100.00;100837.59;5137036;27;20031;-72
2022/06/24 00:53:55;;;;;;;8.18;6.05;;;;;;;22.84;100.00;100844.47;5136621;27;20451;-72
2022/06/24 00:56:42;;;;;;;12.95;5.82;;;;;;;22.42;100.00;100839.19;5137617;27;20031;-72
2022/06/24 00:59:28;;;;;;;10.68;6.32;;;;;;;22.49;100.00;100845.00;5137547;27;20168;-70
2022/06/24 01:02:16;;;;;;;8.68;6.28;;;;;;;22.77;100.00;100843.13;5137242;27;20398;-72
2022/06/24 01:05:06;;;;;;;7.45;5.55;;;;;;;22.75;100.00;100831.69;5137293;27;20034;-72
2022/06/24 01:07:52;;;;;;;9.35;6.28;;;;;;;22.54;100.00;100827.75;5120963;27;20061;-71
2022/06/24 01:10:39;;;;;;;9.43;6.40;;;;;;;22.26;100.00;100825.09;5130195;27;20063;-72
2022/06/24 01:13:25;;;;;;;8.52;6.10;;;;;;;22.16;100.00;100832.00;5120606;27;20035;-71
2022/06/24 01:16:11;;;;;;;13.70;6.68;;;;;;;22.37;100.00;100833.28;5136302;27;20027;-72
2022/06/24 01:19:00;;;;;;;7.20;6.50;;;;;;;22.54;100.00;100837.56;5137833;27;20023;-71
2022/06/24 01:21:48;;;;;;;8.48;5.60;;;;;;;22.64;100.00;100833.34;5121995;27;20045;-72
2022/06/24 01:24:34;;;;;;;9.63;6.05;;;;;;;22.15;100.00;100838.25;5137280;27;20083;-72
2022/06/24 01:27:20;;;;;;;9.32;6.13;;;;;;;22.01;100.00;100838.28;5136515;27;20058;-73
2022/06/24 01:30:06;;;;;;;9.77;6.03;;;;;;;22.16;100.00;100834.66;5137333;27;20019;-72
2022/06/24 01:32:52;;;;;;;10.10;6.15;;;;;;;22.03;100.00;100836.34;5147235;27;20052;-71
2022/06/24 01:35:38;;;;;;;12.00;6.55;;;;;;;22.15;100.00;100832.09;5142377;27;20041;-72
2022/06/24 01:38:24;;;;;;;10.30;6.47;;;;;;;22.11;100.00;100830.56;5144697;27;20031;-71
2022/06/24 01:41:09;;;;;;;6.93;6.18;;;;;;;22.20;100.00;100836.19;5160076;27;20007;-71
2022/06/24 01:43:55;;;;;;;7.75;6.28;;;;;;;22.30;100.00;100821.28;5158759;27;20042;-72
2022/06/24 01:46:41;;;;;;;8.85;6.47;;;;;;;22.35;100.00;100823.66;5158095;27;20113;-72
2022/06/24 01:49:27;;;;;;;7.50;6.60;;;;;;;22.18;100.00;100835.41;5157716;27;20087;-72
2022/06/24 01:52:14;;;;;;;11.10;6.40;;;;;;;22.24;100.00;100836.84;5154682;27;20056;-73
2022/06/24 01:55:00;;;;;;;11.20;6.60;;;;;;;22.13;100.00;100833.97;5144400;27;20397;-73
2022/06/24 01:57:46;;;;;;;10.30;6.70;;;;;;;21.91;100.00;100834.44;5148609;27;20448;-72
2022/06/24 02:00:31;;;;;;;7.45;6.40;;;;;;;21.97;100.00;100834.09;5143199;27;20024;-71
2022/06/24 02:03:17;;;;;;;8.35;6.70;;;;;;;21.77;100.00;100850.47;5127023;27;20452;-72
2022/06/24 02:06:06;;;;;;;8.27;6.53;;;;;;;21.85;100.00;100845.53;5140834;27;20096;-72
2022/06/24 02:08:52;;;;;;;10.85;6.60;;;;;;;22.01;100.00;100851.63;5138311;27;20035;-72
2022/06/24 02:14:42;;;;;;;8.80;6.10;;;;;;;21.76;100.00;100837.22;5136912;27;20115;-71
2022/06/24 02:17:28;;;;;;;14.13;6.97;;;;;;;21.97;100.00;100842.09;5135300;27;20356;-72
2022/06/24 02:20:14;;;;;;;10.07;7.22;;;;;;;22.34;100.00;100838.81;5120623;27;20177;-71
2022/06/24 02:22:59;;;;;;;9.15;7.25;;;;;;;21.93;100.00;100837.03;5135252;27;20015;-72
2022/06/24 02:25:47;;;;;;;9.00;6.68;;;;;;;21.63;100.00;100842.44;5121548;27;20055;-72
2022/06/24 02:28:33;;;;;;;8.13;6.90;;;;;;;21.58;100.00;100841.00;5120998;27;20035;-72
2022/06/24 02:31:18;;;;;;;12.35;7.63;;;;;;;21.78;100.00;100836.19;5135720;27;20019;-71
2022/06/24 02:34:04;;;;;;;9.27;7.25;;;;;;;21.83;100.00;100826.06;5134541;27;20109;-72
2022/06/24 02:36:50;;;;;;;8.45;6.68;;;;;;;21.92;100.00;100827.31;5135147;27;20031;-73
2022/06/24 02:39:36;;;;;;;7.90;6.90;;;;;;;22.18;100.00;100822.06;5134993;27;20023;-72
2022/06/24 02:42:21;;;;;;;10.65;7.40;;;;;;;21.79;100.00;100823.69;5134001;27;20031;-72
2022/06/24 02:45:08;;;;;;;10.00;7.10;;;;;;;21.90;100.00;100823.91;5134635;27;20033;-73
2022/06/24 02:47:54;;;;;;;10.77;7.25;;;;;;;21.78;100.00;100824.66;5134924;27;20050;-71
2022/06/24 02:50:41;;;;;;;9.25;7.60;;;;;;;21.77;100.00;100829.13;5134969;27;20333;-71
2022/06/24 02:53:28;;;;;;;10.45;7.72;;;;;;;22.06;100.00;100825.50;5119805;27;20033;-71
2022/06/24 02:56:15;;;;;;;11.82;7.80;;;;;;;21.83;100.00;100827.91;5134887;27;20027;-72
2022/06/24 02:59:00;;;;;;;10.27;7.63;;;;;;;22.04;100.00;100821.22;5134709;27;20459;-72
2022/06/24 03:01:46;;;;;;;10.48;7.15;;;;;;;22.15;100.00;100821.41;5135633;27;20092;-72
2022/06/24 03:04:32;;;;;;;9.43;6.85;;;;;;;22.24;100.00;100831.50;5134634;27;20439;-71
2022/06/24 03:07:18;;;;;;;10.40;7.47;;;;;;;22.21;100.00;100821.88;5134970;27;20414;-73
2022/06/24 03:10:04;;;;;;;8.95;6.97;;;;;;;22.20;100.00;100824.63;5134795;27;20031;-71
2022/06/24 03:12:50;;;;;;;9.00;6.55;;;;;;;22.00;100.00;100828.56;5135086;27;20121;-73
2022/06/24 03:15:36;;;;;;;9.55;6.68;;;;;;;21.88;100.00;100829.34;5135673;27;20159;-73
2022/06/24 03:18:24;;;;;;;10.95;7.20;;;;;;;22.58;100.00;100825.72;5136142;27;20020;-72
2022/06/24 03:21:09;;;;;;;11.90;6.75;;;;;;;22.54;100.00;100830.41;5135120;27;20106;-73
2022/06/24 03:23:55;;;;;;;10.48;7.10;;;;;;;22.55;100.00;100826.78;5133888;27;20038;-72
2022/06/24 03:26:41;;;;;;;9.55;6.72;;;;;;;22.42;100.00;100833.00;5135028;27;20470;-72
2022/06/24 03:29:27;;;;;;;8.00;6.57;;;;;;;22.51;100.00;100832.44;5135097;27;20035;-71
2022/06/24 03:32:12;;;;;;;9.73;6.70;;;;;;;22.76;100.00;100843.25;5120385;27;20019;-71
2022/06/24 03:34:58;;;;;;;8.40;6.38;;;;;;;22.66;100.00;100840.31;5134379;28;20041;-72
2022/06/24 03:37:44;;;;;;;10.13;6.85;;;;;;;22.63;100.00;100837.81;5134429;28;20031;-72
2022/06/24 03:40:30;;;;;;;12.13;7.10;;;;;;;23.05;100.00;100844.84;5135683;28;20023;-72
2022/06/24 03:43:16;;;;;;;9.18;6.65;;;;;;;23.00;100.00;100838.94;5135858;28;20026;-71
2022/06/24 03:46:03;;;;;;;9.40;6.00;;;;;;;22.68;100.00;100845.56;5135500;28;20031;-71
2022/06/24 03:48:48;;;;;;;9.18;6.65;;;;;;;23.08;100.00;100848.16;5119167;28;20088;-73
2022/06/24 03:51:35;;;;;;;10.35;6.95;;;;;;;22.96;100.00;100859.69;5134587;28;20035;-72
2022/06/24 03:54:22;;;;;;;13.30;6.82;;;;;;;23.03;100.00;100858.28;5134028;28;20482;-72
2022/06/24 03:57:07;;;;;;;11.93;6.85;;;;;;;23.00;100.00;100853.19;5134528;28;20027;-72
2022/06/24 03:59:53;;;;;;;11.27;6.43;;;;;;;22.68;100.00;100850.91;5133758;28;20023;-72
2022/06/24 04:02:40;;;;;;;8.05;6.13;;;;;;;22.88;100.00;100853.13;5120260;28;20023;-73
2022/06/24 04:05:26;;;;;;;9.43;6.47;;;;;;;23.17;100.00;100852.03;5118660;28;20034;-71
2022/06/24 04:08:11;;;;;;;10.95;6.70;;;;;;;23.21;100.00;100857.13;5134093;28;20038;-72
2022/06/24 04:10:57;;;;;;;9.07;6.65;;;;;;;23.16;100.00;100866.38;5133391;28;20126;-72
2022/06/24 04:13:44;;;;;;;9.90;6.50;;;;;;;22.64;100.00;100860.94;5134121;28;20087;-73
2022/06/24 04:16:30;;;;;;;8.68;6.43;;;;;;;22.73;100.00;100867.47;5134760;28;20023;-72
2022/06/24 04:19:15;;;;;;;9.65;7.10;;;;;;;23.09;100.00;100867.72;5133525;28;20106;-72
2022/06/24 04:22:02;;;;;;;9.80;6.57;;;;;;;22.34;100.00;100870.84;5133496;28;20012;-72
2022/06/24 04:24:48;;;;;;;7.93;6.15;;;;;;;22.94;100.00;100876.75;5133793;28;20031;-72
2022/06/24 04:27:34;;;;;;;7.13;5.85;;;;;;;23.10;100.00;100870.31;5117660;28;20054;-72
2022/06/24 04:30:20;;;;;;;10.82;6.30;;;;;;;23.08;100.00;100879.38;5133546;28;20456;-72
2022/06/24 04:33:06;;;;;;;8.48;6.47;;;;;;;22.72;100.00;100869.31;5133600;28;20031;-72
2022/06/24 04:35:52;;;;;;;6.82;6.13;;;;;;;22.77;100.00;100872.53;5133551;28;20091;-72
2022/06/24 04:38:38;;;;;;;12.35;7.80;;;;;;;23.26;100.00;100880.84;5134046;28;20038;-72
2022/06/24 04:41:24;;;;;;;9.25;6.40;;;;;;;23.63;100.00;100879.22;5134556;27;20069;-72
2022/06/24 04:44:10;;;;;;;8.13;6.22;;;;;;;23.71;100.00;100882.25;5137692;27;20538;-71
2022/06/24 04:46:55;;;;;;;8.88;6.25;;;;;;;23.74;100.00;100885.53;5137131;27;20031;-72
2022/06/24 04:49:41;;;;;;;9.50;6.18;;;;;;;23.74;100.00;100887.38;5137086;27;20367;-71
2022/06/24 04:52:27;;;;;;;14.05;7.13;;;;;;;23.57;100.00;100888.53;5136914;27;20408;-72
2022/06/24 04:55:13;;;;;;;15.65;6.97;;;;;;;23.47;100.00;100883.91;5137271;27;20027;-71
2022/06/24 04:57:59;;;;;;;10.00;6.85;;;;;;;23.31;100.00;100892.97;5137155;27;20034;-72
2022/06/24 05:00:44;;;;;;;8.88;7.57;;;;;;;23.38;100.00;100884.53;5136746;27;20035;-72
2022/06/24 05:03:30;;;;;;;10.30;6.90;;;;;;;23.26;100.00;100889.75;5121952;27;20083;-72
2022/06/24 05:06:16;;;;;;;17.25;8.20;;;;;;;23.34;100.00;100895.44;5136663;27;20035;-71
2022/06/24 05:09:02;;;;;;;13.93;7.50;;;;;;;23.33;100.00;100896.41;5137402;27;20057;-72
2022/06/24 05:11:50;;;;;;;10.85;7.30;;;;;;;23.66;100.00;100892.41;5136532;27;20571;-71
2022/06/24 05:14:35;;;;;;;11.70;7.47;;;;;;;23.82;100.00;100901.09;5136500;27;20027;-73
2022/06/24 05:17:22;;;;;;;9.77;7.72;;;;;;;24.16;100.00;100903.16;5136317;27;20470;-72
2022/06/24 05:20:08;;;;;;;9.48;7.40;;;;;;;24.14;100.00;100895.22;5137064;27;20118;-72
2022/06/24 05:22:54;;;;;;;11.43;7.40;;;;;;;24.16;100.00;100904.03;5136491;27;20388;-72
2022/06/24 05:25:39;;;;;;;8.25;7.35;;;;;;;24.31;100.00;100904.75;5136335;27;20027;-71
2022/06/24 05:28:25;;;;;;;9.80;7.15;;;;;;;24.23;100.00;100915.16;5136269;27;20039;-72
2022/06/24 05:31:11;;;;;;;8.27;6.60;;;;;;;24.71;100.00;100917.88;5136625;27;20023;-72
2022/06/24 05:33:57;;;;;;;12.60;6.70;;;;;;;24.75;100.00;100916.69;5136752;27;20060;-71
2022/06/24 05:36:43;;;;;;;8.88;6.40;;;;;;;24.97;100.00;100918.66;5136154;27;20377;-72
2022/06/24 05:39:29;;;;;;;8.88;6.32;;;;;;;25.37;100.00;100922.81;5136696;27;20060;-72
2022/06/24 05:42:14;;;;;;;10.60;6.70;;;;;;;25.23;100.00;100923.78;5135420;27;20025;-71
2022/06/24 05:45:00;;;;;;;11.95;6.90;;;;;;;25.47;100.00;100923.84;5136003;27;20023;-72
2022/06/24 05:47:46;;;;;;;21.55;8.55;;;;;;;25.45;100.00;100926.63;5135622;27;20023;-73
2022/06/24 05:50:32;;;;;;;18.15;6.80;;;;;;;25.71;100.00;100930.00;5136330;27;20027;-72
2022/06/24 05:56:22;;;;;;;8.00;5.90;;;;;;;25.84;100.00;100939.69;5135913;27;20401;-71
2022/06/24 05:59:07;;;;;;;9.50;5.80;;;;;;;26.24;100.00;100932.13;5135202;27;20480;-72
2022/06/24 06:01:53;;;;;;;8.57;5.70;;;;;;;26.00;100.00;100934.03;5121229;27;20132;-72
2022/06/24 06:04:39;;;;;;;11.30;5.63;;;;;;;26.23;100.00;100936.63;5135360;27;20022;-72
2022/06/24 06:07:25;;;;;;;6.55;5.53;;;;;;;25.90;100.00;100924.94;5135917;27;20110;-73
2022/06/24 06:10:10;;;;;;;9.27;5.68;;;;;;;25.36;100.00;100939.88;5135392;27;20027;-71
2022/06/24 06:12:56;;;;;;;11.75;7.07;;;;;;;25.80;100.00;100937.38;5135458;27;20027;-72
2022/06/24 06:15:44;;;;;;;9.93;6.82;;;;;;;25.78;100.00;100936.59;5121316;27;20035;-72
2022/06/24 06:18:30;;;;;;;7.32;5.70;;;;;;;25.94;100.00;100934.50;5135267;27;20417;-72
2022/06/24 06:21:16;;;;;;;11.18;6.30;;;;;;;25.99;100.00;100934.97;5135242;27;20049;-72
2022/06/24 06:24:02;;;;;;;7.82;5.85;;;;;;;26.15;100.00;100936.38;5134903;27;20023;-72
2022/06/24 06:26:49;;;;;;;8.07;5.18;;;;;;;25.93;100.00;100936.31;5135054;27;20086;-72
2022/06/24 06:29:35;;;;;;;30.02;10.93;;;;;;;25.90;100.00;100935.66;5134888;27;20113;-71
2022/06/24 06:32:21;;;;;;;11.50;6.07;;;;;;;26.19;100.00;100934.28;5134835;27;20086;-72
2022/06/24 06:35:07;;;;;;;10.80;5.18;;;;;;;26.22;100.00;100936.72;5119400;27;20122;-72
2022/06/24 06:37:53;;;;;;;7.85;4.05;;;;;;;26.24;98.24;100932.94;5137859;27;20035;-71
2022/06/24 06:40:39;;;;;;;6.32;3.30;;;;;;;26.01;94.36;100941.09;5139661;27;20030;-72
2022/06/24 06:43:25;;;;;;;6.93;3.50;;;;;;;25.81;96.85;100941.75;5137900;27;20023;-71
2022/06/24 06:46:11;;;;;;;4.72;3.45;;;;;;;26.32;95.99;100935.06;5138151;27;20050;-71
2022/06/24 06:48:57;;;;;;;24.15;5.32;;;;;;;26.11;94.00;100939.41;5139260;27;20019;-72
2022/06/24 06:51:43;;;;;;;15.18;4.13;;;;;;;26.16;94.12;100938.06;5138987;27;20025;-72
2022/06/24 06:54:30;;;;;;;13.25;4.38;;;;;;;26.47;92.72;100937.38;5138446;27;20109;-71
2022/06/24 06:57:15;;;;;;;4.88;3.35;;;;;;;26.65;90.21;100938.59;5139301;27;20035;-72
2022/06/24 07:00:03;;;;;;;5.90;3.90;;;;;;;26.68;91.29;100934.84;5139069;27;20098;-72
2022/06/24 07:02:50;;;;;;;5.75;3.63;;;;;;;26.75;90.63;100934.22;5134801;27;20059;-72
2022/06/24 07:05:36;;;;;;;13.60;8.90;;;;;;;26.55;90.48;100926.00;5133779;27;20457;-72
2022/06/24 07:08:23;;;;;;;20.25;15.15;;;;;;;26.43;88.73;100927.84;5133980;27;20079;-73
2022/06/24 07:11:08;;;;;;;10.13;3.28;;;;;;;26.32;90.12;100921.63;5119128;27;20030;-71
2022/06/24 07:13:57;;;;;;;5.05;3.40;;;;;;;26.81;88.88;100922.09;5134602;27;20024;-71
2022/06/24 07:16:43;;;;;;;6.53;3.53;;;;;;;26.41;87.86;100924.41;5134323;27;20171;-71
2022/06/24 07:19:28;;;;;;;5.90;3.00;;;;;;;26.39;84.85;100933.56;5134558;27;20022;-72
2022/06/24 07:22:14;;;;;;;4.63;3.40;;;;;;;26.48;85.56;100920.25;5134022;27;20030;-72
2022/06/24 07:25:00;;;;;;;6.90;3.72;;;;;;;27.19;81.56;100926.03;5134447;27;20478;-71
2022/06/24 07:27:46;;;;;;;13.00;10.05;;;;;;;27.52;77.48;100921.56;5133406;27;20051;-73
2022/06/24 07:30:32;;;;;;;9.48;5.15;;;;;;;27.99;76.71;100932.69;5133868;27;20023;-72
2022/06/24 07:33:18;;;;;;;8.15;4.88;;;;;;;28.20;75.70;100927.31;5133924;27;20023;-73
2022/06/24 07:36:04;;;;;;;6.78;3.60;;;;;;;28.30;72.00;100918.28;5134114;27;20031;-72
2022/06/24 07:38:49;;;;;;;5.15;3.25;;;;;;;28.09;72.84;100922.84;5134684;28;20113;-72
2022/06/24 07:41:35;;;;;;;7.28;3.60;;;;;;;28.32;72.80;100918.97;5133887;28;20033;-72
2022/06/24 07:44:21;;;;;;;6.95;4.13;;;;;;;28.22;74.36;100928.00;5134106;28;20025;-72
2022/06/24 07:47:09;;;;;;;9.25;3.97;;;;;;;28.09;73.12;100925.53;5134168;28;20110;-72
2022/06/24 07:49:55;;;;;;;8.38;4.30;;;;;;;28.08;78.78;100918.41;5119735;28;20042;-72
2022/06/24 07:52:41;;;;;;;8.73;4.18;;;;;;;28.35;74.45;100915.16;5133903;28;20024;-72
2022/06/24 07:58:31;;;;;;;8.68;4.50;;;;;;;28.90;71.39;100912.84;5133932;28;20035;-72
2022/06/24 08:01:17;;;;;;;9.32;4.60;;;;;;;28.72;70.35;100903.69;5134066;28;20495;-71
2022/06/24 08:04:09;;;;;;;8.05;4.65;;;;;;;28.72;70.71;100906.41;5133916;28;20094;-73
2022/06/24 08:06:56;;;;;;;9.38;4.13;;;;;;;29.28;68.81;100906.66;5134097;28;20035;-72
2022/06/24 08:09:44;;;;;;;5.03;3.58;;;;;;;29.20;68.11;100901.97;5133663;28;20027;-72
2022/06/24 08:12:30;;;;;;;6.25;4.25;;;;;;;29.84;64.71;100903.13;5119137;28;20118;-72
2022/06/24 08:15:17;;;;;;;7.47;3.83;;;;;;;29.98;61.95;100908.06;5133921;27;20023;-71
2022/06/24 08:18:03;;;;;;;8.30;3.75;;;;;;;30.04;60.15;100906.63;5136662;27;20031;-72
2022/06/24 08:20:49;;;;;;;8.55;3.92;;;;;;;30.72;56.42;100908.97;5137934;27;20455;-72
2022/06/24 08:23:34;;;;;;;7.65;3.65;;;;;;;30.87;55.52;100905.59;5122773;27;20056;-72
2022/06/24 08:26:20;;;;;;;5.97;3.30;;;;;;;30.69;54.83;100920.09;5137947;27;20376;-74
2022/06/24 08:29:06;;;;;;;9.73;6.68;;;;;;;30.47;55.18;100918.63;5123603;27;20466;-73
2022/06/24 08:31:52;;;;;;;8.00;4.72;;;;;;;30.12;55.07;100910.31;5138006;27;20384;-74
2022/06/24 08:34:38;;;;;;;9.18;5.38;;;;;;;29.98;55.31;100909.94;5137523;27;20042;-72
2022/06/24 08:37:23;;;;;;;9.45;3.63;;;;;;;30.20;54.90;100912.31;5138322;27;20136;-73
2022/06/24 08:40:10;;;;;;;5.03;3.80;;;;;;;30.24;54.29;100919.13;5122571;27;20091;-72
2022/06/24 08:42:58;;;;;;;9.98;5.60;;;;;;;30.57;53.19;100921.25;5137520;27;20098;-72
2022/06/24 08:45:44;;;;;;;14.80;9.50;;;;;;;30.84;51.76;100907.78;5137759;27;20027;-72
2022/06/24 08:48:33;;;;;;;20.65;11.93;;;;;;;31.33;50.20;100910.03;5137504;27;20459;-73
2022/06/24 08:51:23;;;;;;;12.25;6.55;;;;;;;30.59;51.55;100906.63;5123370;27;20345;-73
2022/06/24 08:54:11;;;;;;;7.15;3.70;;;;;;;30.84;49.99;100911.34;5136845;27;20034;-72
2022/06/24 08:56:58;;;;;;;5.30;3.20;;;;;;;30.73;52.23;100895.31;5136933;27;20034;-72
2022/06/24 08:59:45;;;;;;;7.43;3.45;;;;;;;30.48;53.00;100893.28;5136563;27;20041;-73
2022/06/24 09:02:31;;;;;;;3.55;3.15;;;;;;;30.76;51.80;100891.44;5121977;27;20347;-72
2022/06/24 09:05:17;;;;;;;4.30;3.20;;;;;;;30.74;51.46;100897.00;5136639;27;20054;-73
2022/06/24 09:08:06;;;;;;;4.90;3.20;;;;;;;31.05;51.92;100900.22;5136566;27;20031;-73
2022/06/24 09:11:07;;;;;;;6.18;3.67;;;;;;;30.69;51.84;100896.63;5136229;27;20079;-73
2022/06/24 09:13:55;;;;;;;4.88;2.97;;;;;;;31.19;50.00;100895.13;5136449;27;20034;-73
2022/06/24 09:16:41;;;;;;;6.50;3.08;;;;;;;30.60;48.40;100897.50;5122461;27;20023;-71
2022/06/24 09:19:31;;;;;;;7.78;2.85;;;;;;;30.12;47.79;100904.91;5136388;27;20019;-72
2022/06/24 09:22:21;;;;;;;5.80;2.90;;;;;;;30.67;45.64;100897.75;5136502;27;20034;-71
2022/06/24 09:25:08;;;;;;;6.03;3.00;;;;;;;30.62;46.38;100902.75;5135698;27;20019;-72
2022/06/24 09:27:58;;;;;;;5.07;2.95;;;;;;;31.09;46.24;100902.50;5135676;27;20051;-73
2022/06/24 09:30:44;;;;;;;6.10;3.03;;;;;;;31.35;44.65;100905.31;5136320;27;20027;-73
2022/06/24 09:33:41;;;;;;;4.53;2.50;;;;;;;30.53;43.99;100898.22;5120595;27;20027;-72
2022/06/24 09:36:27;;;;;;;5.65;2.78;;;;;;;30.54;43.86;100902.66;5136151;27;20096;-71
2022/06/24 09:39:16;;;;;;;3.20;2.40;;;;;;;30.37;43.74;100898.00;5137707;27;20434;-72
2022/06/24 09:42:02;;;;;;;7.05;2.95;;;;;;;30.40;44.78;100892.31;5136056;27;20481;-72
2022/06/24 09:44:48;;;;;;;6.45;3.05;;;;;;;30.25;44.92;100897.34;5120966;27;20057;-71
2022/06/24 09:47:40;;;;;;;5.70;2.80;;;;;;;31.06;44.58;100886.53;5135874;27;20049;-72
2022/06/24 09:50:26;;;;;;;3.97;3.00;;;;;;;31.28;43.56;100882.56;5135829;27;20039;-72
2022/06/24 09:53:13;;;;;;;5.10;2.83;;;;;;;30.83;44.10;100885.25;5136007;27;20352;-72
2022/06/24 09:56:00;;;;;;;9.43;2.75;;;;;;;30.71;43.49;100891.91;5135937;27;20023;-72
2022/06/24 10:00:40;;;;;;;2.50;2.30;;;;;;;30.72;43.17;100877.38;5135552;27;20339;-74
2022/06/24 10:01:53;;;;;;;4.60;2.85;;;;;;;31.11;44.87;100884.22;5136093;27;20034;-72
2022/06/24 10:04:39;;;;;;;5.22;3.20;;;;;;;30.45;44.81;100882.75;5135444;27;20023;-74
2022/06/24 10:07:26;;;;;;;5.50;2.67;;;;;;;30.76;45.99;100877.91;5136149;27;20019;-72
2022/06/24 10:10:13;;;;;;;6.45;2.85;;;;;;;30.86;45.24;100878.72;5135847;27;20031;-72
2022/06/24 10:13:03;;;;;;;3.95;2.80;;;;;;;30.48;45.60;100879.75;5135657;27;20031;-72
2022/06/24 10:15:50;;;;;;;3.13;2.70;;;;;;;31.07;44.65;100879.28;5136131;27;20096;-72
2022/06/24 10:18:39;;;;;;;6.95;2.95;;;;;;;30.67;46.42;100874.25;5120739;27;20347;-72
2022/06/24 10:21:25;;;;;;;7.63;3.33;;;;;;;30.60;46.88;100875.84;5135913;27;20026;-72
2022/06/24 10:24:13;;;;;;;4.57;2.90;;;;;;;30.13;48.62;100873.31;5135501;27;20019;-72
2022/06/24 10:26:59;;;;;;;3.63;2.88;;;;;;;30.74;46.18;100869.13;5134655;27;20047;-71
2022/06/24 10:29:44;;;;;;;6.70;3.25;;;;;;;31.42;45.48;100870.34;5134371;27;20031;-71
2022/06/24 10:32:31;;;;;;;4.78;2.70;;;;;;;31.37;45.20;100873.50;5135645;27;20118;-72
2022/06/24 10:35:16;;;;;;;4.53;2.80;;;;;;;31.20;44.88;100867.06;5134371;27;20511;-72
2022/06/24 10:38:04;;;;;;;6.93;2.92;;;;;;;30.65;46.05;100872.69;5135728;27;20047;-72
2022/06/24 10:40:50;;;;;;;3.35;2.97;;;;;;;30.24;48.49;100865.06;5134587;27;20042;-72
2022/06/24 10:43:40;;;;;;;4.85;3.28;;;;;;;30.42;47.40;100865.97;5135258;27;20444;-73
2022/06/24 10:46:26;;;;;;;9.07;4.40;;;;;;;30.52;48.28;100862.22;5134936;27;20019;-73
2022/06/24 10:49:12;;;;;;;4.05;3.17;;;;;;;30.36;46.92;100858.44;5120199;27;20033;-73
2022/06/24 10:52:36;;;;;;;3.88;2.70;;;;;;;29.55;47.94;100861.78;5135123;27;20510;-72
2022/06/24 10:55:28;;;;;;;6.80;3.10;;;;;;;30.52;46.81;100855.94;5135044;27;20019;-72
2022/06/24 10:58:17;;;;;;;6.05;3.10;;;;;;;30.04;46.97;100848.03;5134940;27;20027;-72
2022/06/24 11:01:06;;;;;;;5.63;2.92;;;;;;;31.17;45.50;100856.53;5119570;27;20026;-72
2022/06/24 11:03:53;;;;;;;5.13;2.70;;;;;;;30.67;44.52;100849.03;5134832;27;20023;-72
2022/06/24 11:06:39;;;;;;;3.25;2.78;;;;;;;30.47;44.49;100850.16;5119337;27;20088;-72
2022/06/24 11:09:28;;;;;;;6.57;2.95;;;;;;;30.84;43.90;100853.66;5120734;27;20051;-73
2022/06/24 11:12:30;;;;;;;5.47;2.90;;;;;;;31.04;43.78;100852.50;5134309;27;20038;-72
2022/06/24 11:15:16;;;;;;;5.40;2.85;;;;;;;31.36;43.81;100852.84;5134222;27;20038;-73
2022/06/24 11:18:23;;;;;;;5.97;2.97;;;;;;;31.40;43.42;100856.94;5133958;27;20019;-72
2022/06/24 11:21:09;;;;;;;10.10;3.17;;;;;;;31.22;43.33;100843.38;5119879;27;20059;-72
2022/06/24 11:24:00;;;;;;;7.20;2.70;;;;;;;31.77;42.81;100854.91;5134303;27;20118;-72
2022/06/24 11:27:06;;;;;;;5.20;3.42;;;;;;;31.15;41.87;100841.47;5133977;27;20074;-71
2022/06/24 11:29:52;;;;;;;4.25;2.90;;;;;;;30.92;43.32;100834.81;5118669;27;20092;-73
2022/06/24 11:32:59;;;;;;;4.53;3.33;;;;;;;31.86;42.45;100836.84;5134539;27;20110;-72
2022/06/24 11:35:49;;;;;;;12.70;4.40;;;;;;;31.92;41.77;100841.59;5118610;27;20051;-72
2022/06/24 11:39:05;;;;;;;7.05;3.53;;;;;;;31.71;41.82;100839.25;5133902;28;20449;-72
2022/06/24 11:41:52;;;;;;;5.00;2.90;;;;;;;32.19;41.62;100828.72;5133948;28;20023;-72
2022/06/24 11:44:39;;;;;;;5.57;3.47;;;;;;;32.43;41.07;100826.16;5134057;28;20027;-72
2022/06/24 11:47:32;;;;;;;4.15;3.17;;;;;;;32.06;39.19;100843.75;5133773;28;20023;-73
2022/06/24 11:50:19;;;;;;;4.68;2.47;;;;;;;32.27;38.87;100838.75;5135120;27;20031;-72
2022/06/24 11:53:07;;;;;;;3.35;2.88;;;;;;;32.11;39.25;100838.69;5138149;27;20027;-72
2022/06/24 11:55:54;;;;;;;7.45;2.83;;;;;;;31.62;40.15;100836.63;5137724;27;20031;-73
2022/06/24 11:58:39;;;;;;;6.05;3.15;;;;;;;32.33;39.25;100833.56;5137961;27;20031;-73
2022/06/24 12:01:29;;;;;;;5.35;3.28;;;;;;;32.81;38.41;100830.19;5123925;27;20026;-73
2022/06/24 12:04:15;;;;;;;4.97;3.10;;;;;;;32.39;37.56;100819.38;5137587;27;20016;-72
2022/06/24 12:07:05;;;;;;;4.45;3.15;;;;;;;32.96;37.07;100825.81;5123456;27;20118;-73
2022/06/24 12:09:51;;;;;;;3.80;2.63;;;;;;;32.81;35.75;100827.47;5137887;27;20095;-73
2022/06/24 12:12:36;;;;;;;3.97;2.80;;;;;;;32.55;36.69;100821.28;5136903;27;20026;-72
2022/06/24 12:15:27;;;;;;;4.30;2.40;;;;;;;32.73;35.80;100827.41;5136857;27;20470;-72
2022/06/24 12:18:15;;;;;;;4.05;2.80;;;;;;;32.77;36.06;100824.22;5137584;27;20031;-73
2022/06/24 12:21:07;;;;;;;4.60;2.97;;;;;;;33.41;35.04;100824.34;5137879;27;20027;-73
2022/06/24 12:23:54;;;;;;;5.38;3.00;;;;;;;32.60;36.95;100813.47;5137101;27;20023;-73
2022/06/24 12:26:44;;;;;;;3.45;2.47;;;;;;;32.86;36.48;100817.00;5137352;27;20059;-72
2022/06/24 12:29:36;;;;;;;5.40;2.65;;;;;;;32.03;37.06;100811.53;5137178;27;20042;-72
2022/06/24 12:32:22;;;;;;;8.00;3.67;;;;;;;32.34;37.26;100807.31;5137168;27;20470;-72
2022/06/24 12:35:08;;;;;;;6.38;2.78;;;;;;;31.18;37.52;100808.66;5137740;27;20031;-72
2022/06/24 12:37:54;;;;;;;5.68;3.33;;;;;;;32.08;36.54;100804.59;5137824;27;20023;-72
2022/06/24 12:40:40;;;;;;;6.63;2.75;;;;;;;32.16;35.60;100818.22;5137687;27;20031;-72
2022/06/24 12:43:26;;;;;;;5.93;3.13;;;;;;;32.61;36.73;100807.91;5137861;27;20090;-72
2022/06/24 12:46:11;;;;;;;5.32;2.92;;;;;;;32.44;36.76;100810.72;5137255;27;20026;-72
2022/06/24 12:52:02;;;;;;;3.42;2.38;;;;;;;33.46;34.98;100813.81;5137558;27;20023;-71
2022/06/24 12:54:48;;;;;;;3.42;2.70;;;;;;;32.65;35.04;100811.13;5121778;27;20019;-71
2022/06/24 12:57:34;;;;;;;3.00;2.70;;;;;;;32.05;35.87;100806.78;5137197;27;20023;-73
2022/06/24 13:00:20;;;;;;;8.88;2.78;;;;;;;32.69;36.44;100801.63;5136673;27;20035;-71
2022/06/24 13:03:06;;;;;;;7.32;6.00;;;;;;;31.38;37.84;100814.78;5136615;27;20019;-71
2022/06/24 13:05:51;;;;;;;5.30;2.97;;;;;;;30.61;40.43;100801.81;5136187;27;20023;-72